ADDS METAR Data INFO
IDs: Format: Raw Decoded Include TAF

Data at: 1256 UTC 20 Jan 2018

METAR for:KMIE (Muncie/Johnson Fld, IN, US)
Text:KMIE 201253Z 22012G19KT 10SM CLR 01/M06 A2998 RMK AO2 SLP157 T00111056
Temperature: 1.1°C ( 34°F)
Dewpoint: -5.6°C ( 22°F) [RH = 61%]
Pressure (altimeter):29.98 inches Hg (1015.3 mb) [Sea level pressure: 1015.7 mb]
Winds:from the SW (220 degrees) at 14 MPH (12 knots; 6.2 m/s) gusting to 22 MPH (19 knots; 9.8 m/s)
Visibility:10 or more sm (16+ km)
Ceiling:at least 12,000 feet AGL
Clouds:sky clear below 12,000 feet AGL